KPHL/PHL METAR and TAF weather

Enter ICAO airport designator
Station Type Date Time Source
KPHL METAR 2020/08/05 23:54 UTC NOAA

KPHL 052354Z 30007KT 10SM BKN250 29/16 A3003 RMK AO2 SLP167 T02890156 10311 20289 56003


Station Type Date Time Source
KPHL Decoded METAR 2020/08/05 23:54 UTC NOAA

PHILADELPHIA INTERNATIONAL AIRPT, PA, United States (KPHL) 39-52N 075-14W 18M
Aug 05, 2020 - 07:54 PM EDT / 2020.08.05 2354 UTC
Wind: from the WNW (300 degrees) at 8 MPH (7 KT):0
Visibility: 10 mile(s):0
Sky conditions: mostly cloudy
Temperature: 84.0 F (28.9 C)
Dew Point: 60.1 F (15.6 C)
Relative Humidity: 44%
Pressure (altimeter): 30.03 in. Hg (1016 hPa)
Pressure tendency: 0.01 inches (0.3 hPa) lower than three hours ago
ob: KPHL 052354Z 30007KT 10SM BKN250 29/16 A3003 RMK AO2 SLP167 T02890156 10311 20289 56003
cycle: 0

Station Type Date Time Source
KPHL TAF 2020/08/05 21:58 UTC NOAA

TAF
AMD KPHL 052057Z 0521/0624 24010KT P6SM SCT060
FM060000 28006KT P6SM SKC
FM060600 VRB04KT P6SM BKN150
FM061300 06008KT P6SM OVC080
FM061600 08008KT P6SM OVC040

Example: see airport list